• Join FlightAware (Why Join?)
  • Login
  • US Flag 
12:25PM EDT


 

Airport Tracker/Info


-or-


 

Live Flight TrackerFlight Track Log ✈ UCA4846 ✈ 29-Aug-2013 ✈ KEWR - KBUF

Flight Track Log - Related Links

Times and Time Zones

All times are in EDT time to prevent confusion due to time zone crossing. See the UCA4846 flight status page for this flight to view local times or setup timezone preferences in your user account.

Time Position Orientation Groundspeed Altitude Reporting Facility
EDT Latitude Longitude Course Direction KTS MPH feet Rate Location/Type
12:23PM 40.9734 -74.7027 305° West  Level Estimated
12:24PM 41.0133 -74.7793 305° West  Level Estimated
12:25PM 41.0531 -74.8561 305° West  Level Estimated
12:26PM 41.0930 -74.9329 305° West  Level Estimated
12:27PM 41.1327 -75.0099 304° West  Level Estimated
12:28PM 41.1724 -75.0869 304° West  Level Estimated
12:29PM 41.2121 -75.1640 304° West  Level Estimated
12:30PM 41.2517 -75.2412 304° West  Level Estimated
12:31PM 41.2913 -75.3186 304° West  Level Estimated
12:32PM 41.3308 -75.3960 304° West  Level Estimated
12:33PM 41.3702 -75.4734 304° West  Level Estimated
12:34PM 41.4096 -75.5510 304° West  Level Estimated
12:35PM 41.4490 -75.6287 304° West  Level Estimated
12:36PM 41.4883 -75.7065 304° West  Level Estimated
12:37PM 41.5275 -75.7844 304° West  Level Estimated
12:38PM 41.5667 -75.8624 304° West  Level Estimated
12:39PM 41.6059 -75.9404 304° West  Level Estimated
12:40PM 41.6450 -76.0186 304° West  Level Estimated
12:41PM 41.6840 -76.0968 304° West  Level Estimated
12:42PM 41.7230 -76.1752 304° West  Level Estimated
12:43PM 41.7619 -76.2536 304° West  Level Estimated
12:44PM 41.8008 -76.3322 304° West  Level Estimated
12:45PM 41.8396 -76.4108 304° West  Level Estimated
12:46PM 41.8784 -76.4895 303° West  Level Estimated
12:47PM 41.9171 -76.5683 303° West  Level Estimated
12:48PM 41.9558 -76.6472 303° West  Level Estimated
12:49PM 41.9944 -76.7263 303° West  Level Estimated
12:50PM 42.0329 -76.8054 303° West  Level Estimated
12:51PM 42.0714 -76.8846 303° West  Level Estimated
12:52PM 42.1099 -76.9639 303° West  Level Estimated
12:53PM 42.1483 -77.0433 303° West  Level Estimated
12:54PM 42.1866 -77.1228 303° West  Level Estimated
12:55PM 42.2249 -77.2024 303° West  Level Estimated
12:56PM 42.2631 -77.2821 303° West  Level Estimated
12:57PM 42.3013 -77.3619 303° West  Level Estimated
12:58PM 42.3394 -77.4417 303° West  Level Estimated
12:59PM 42.3774 -77.5217 303° West  Level Estimated
01:00PM 42.4154 -77.6018 303° West  Level Estimated
01:01PM 42.4534 -77.6820 303° West  Level Estimated
01:02PM 42.4913 -77.7622 303° West  Level Estimated
01:03PM 42.5291 -77.8426 303° West  Level Estimated
01:04PM 42.5669 -77.9231 303° West  Level Estimated
01:05PM 42.6046 -78.0036 302° West  Level Estimated
01:06PM 42.6423 -78.0843 302° West  Level Estimated
01:07PM 42.6799 -78.1650 302° West  Level Estimated
01:08PM 42.7174 -78.2459 302° West  Level Estimated
01:09PM 42.7549 -78.3269 302° West  Level Estimated
01:10PM 42.7924 -78.4079 302° West  Level Estimated
01:11PM 42.8298 -78.4891 302° West  Level Estimated
01:12PM 42.8671 -78.5703 302° West  Level Estimated
01:13PM 42.9044 -78.6516 302° West  Level Estimated
01:14PM 42.9404 -78.7306 302° West  Level Estimated
01:15PM 42.9404 -78.7306 216° Southwest  Level Estimated
01:16PM 42.9404 -78.7306 216° Southwest  Level Estimated
01:17PM 42.9404 -78.7306 216° Southwest  Level Estimated
01:18PM 42.9404 -78.7306 216° Southwest  Level Estimated
01:19PM 42.9404 -78.7306 216° Southwest  Level Estimated
01:20PM 42.9404 -78.7306 216° Southwest  Level Estimated
01:21PM 42.9404 -78.7306 216° Southwest  Level Estimated
01:22PM 42.9404 -78.7306 216° Southwest  Level Estimated
01:23PM 42.9404 -78.7306 216° Southwest  Level Estimated
01:24PM 42.9404 -78.7306 216° Southwest  Level Estimated
01:25PM 42.9404 -78.7306 216° Southwest  Level Estimated
01:26PM 42.9404 -78.7306 216° Southwest  Level Estimated
01:27PM 42.9404 -78.7306 216° Southwest  Level Estimated
01:28PM 42.9404 -78.7306 216° Southwest  Level Estimated
01:29PM 42.9404 -78.7306 216° Southwest  Level Estimated
01:30PM 42.9404 -78.7306 216° Southwest  Level Estimated